sensor_id;sensor_type;location;lat;lon;timestamp;temperature;humidity
15596;DHT22;7898;48.658;9.068;2023-08-07T00:02:05;11.00;99.90
15596;DHT22;7898;48.658;9.068;2023-08-07T00:04:32;11.10;99.90
15596;DHT22;7898;48.658;9.068;2023-08-07T00:06:59;11.10;99.90
15596;DHT22;7898;48.658;9.068;2023-08-07T00:09:27;11.00;99.90
15596;DHT22;7898;48.658;9.068;2023-08-07T00:11:54;11.00;99.90
15596;DHT22;7898;48.658;9.068;2023-08-07T00:14:21;11.00;99.90
15596;DHT22;7898;48.658;9.068;2023-08-07T00:16:47;11.00;99.90
15596;DHT22;7898;48.658;9.068;2023-08-07T00:19:14;11.00;99.90
15596;DHT22;7898;48.658;9.068;2023-08-07T00:21:41;11.00;99.90
15596;DHT22;7898;48.658;9.068;2023-08-07T00:24:08;11.00;99.90
15596;DHT22;7898;48.658;9.068;2023-08-07T00:26:36;10.90;99.90
15596;DHT22;7898;48.658;9.068;2023-08-07T00:29:03;10.90;99.90
15596;DHT22;7898;48.658;9.068;2023-08-07T00:31:30;10.90;99.90
15596;DHT22;7898;48.658;9.068;2023-08-07T00:33:57;10.90;99.90
15596;DHT22;7898;48.658;9.068;2023-08-07T00:36:24;10.90;99.90
15596;DHT22;7898;48.658;9.068;2023-08-07T00:38:54;10.90;99.90
15596;DHT22;7898;48.658;9.068;2023-08-07T00:41:21;10.90;99.90
15596;DHT22;7898;48.658;9.068;2023-08-07T00:43:49;10.90;99.90
15596;DHT22;7898;48.658;9.068;2023-08-07T00:46:16;10.80;99.90
15596;DHT22;7898;48.658;9.068;2023-08-07T00:48:43;10.90;99.90
15596;DHT22;7898;48.658;9.068;2023-08-07T00:51:10;10.80;99.90
15596;DHT22;7898;48.658;9.068;2023-08-07T00:53:38;10.80;99.90
15596;DHT22;7898;48.658;9.068;2023-08-07T00:56:05;10.80;99.90
15596;DHT22;7898;48.658;9.068;2023-08-07T00:58:32;10.80;99.90
15596;DHT22;7898;48.658;9.068;2023-08-07T01:01:01;10.70;99.90
15596;DHT22;7898;48.658;9.068;2023-08-07T01:03:28;10.70;99.90
15596;DHT22;7898;48.658;9.068;2023-08-07T01:05:55;10.80;99.90
15596;DHT22;7898;48.658;9.068;2023-08-07T01:08:22;10.70;99.90
15596;DHT22;7898;48.658;9.068;2023-08-07T01:11:04;10.70;99.90
15596;DHT22;7898;48.658;9.068;2023-08-07T01:13:38;10.70;99.90
15596;DHT22;7898;48.658;9.068;2023-08-07T01:16:14;10.70;99.90
15596;DHT22;7898;48.658;9.068;2023-08-07T01:18:45;10.70;99.90
15596;DHT22;7898;48.658;9.068;2023-08-07T01:21:17;10.70;99.90
15596;DHT22;7898;48.658;9.068;2023-08-07T01:23:46;10.70;99.90
15596;DHT22;7898;48.658;9.068;2023-08-07T01:26:13;10.70;99.90
15596;DHT22;7898;48.658;9.068;2023-08-07T01:28:44;10.70;99.90
15596;DHT22;7898;48.658;9.068;2023-08-07T01:31:14;10.70;99.90
15596;DHT22;7898;48.658;9.068;2023-08-07T01:33:47;10.70;99.90
15596;DHT22;7898;48.658;9.068;2023-08-07T01:36:17;10.70;99.90
15596;DHT22;7898;48.658;9.068;2023-08-07T01:38:47;10.70;99.90
15596;DHT22;7898;48.658;9.068;2023-08-07T01:41:14;10.70;99.90
15596;DHT22;7898;48.658;9.068;2023-08-07T01:43:41;10.70;99.90
15596;DHT22;7898;48.658;9.068;2023-08-07T01:46:08;10.60;99.90
15596;DHT22;7898;48.658;9.068;2023-08-07T01:48:34;10.60;99.90
15596;DHT22;7898;48.658;9.068;2023-08-07T01:51:01;10.60;99.90
15596;DHT22;7898;48.658;9.068;2023-08-07T01:53:28;10.60;99.90
15596;DHT22;7898;48.658;9.068;2023-08-07T01:55:56;10.60;99.90
15596;DHT22;7898;48.658;9.068;2023-08-07T01:58:23;10.70;99.90
15596;DHT22;7898;48.658;9.068;2023-08-07T02:00:50;10.60;99.90
15596;DHT22;7898;48.658;9.068;2023-08-07T02:03:17;10.60;99.90
15596;DHT22;7898;48.658;9.068;2023-08-07T02:05:45;10.70;99.90
15596;DHT22;7898;48.658;9.068;2023-08-07T02:08:12;10.70;99.90
15596;DHT22;7898;48.658;9.068;2023-08-07T02:10:39;10.70;99.90
15596;DHT22;7898;48.658;9.068;2023-08-07T02:13:07;10.70;99.90
15596;DHT22;7898;48.658;9.068;2023-08-07T02:15:34;10.70;99.90
15596;DHT22;7898;48.658;9.068;2023-08-07T02:18:00;10.70;99.90
15596;DHT22;7898;48.658;9.068;2023-08-07T02:20:27;10.80;99.90
15596;DHT22;7898;48.658;9.068;2023-08-07T02:22:54;10.70;99.90
15596;DHT22;7898;48.658;9.068;2023-08-07T02:25:21;10.80;99.90
15596;DHT22;7898;48.658;9.068;2023-08-07T02:27:48;10.80;99.90
15596;DHT22;7898;48.658;9.068;2023-08-07T02:30:17;10.90;99.90
15596;DHT22;7898;48.658;9.068;2023-08-07T02:32:44;10.90;99.90
15596;DHT22;7898;48.658;9.068;2023-08-07T02:35:12;10.90;99.90
15596;DHT22;7898;48.658;9.068;2023-08-07T02:37:38;10.90;99.90
15596;DHT22;7898;48.658;9.068;2023-08-07T02:40:06;10.90;99.90
15596;DHT22;7898;48.658;9.068;2023-08-07T02:42:33;11.00;99.90
15596;DHT22;7898;48.658;9.068;2023-08-07T02:45:00;11.00;99.90
15596;DHT22;7898;48.658;9.068;2023-08-07T02:47:28;11.10;99.90
15596;DHT22;7898;48.658;9.068;2023-08-07T02:49:55;11.10;99.90
15596;DHT22;7898;48.658;9.068;2023-08-07T02:52:22;11.20;99.90
15596;DHT22;7898;48.658;9.068;2023-08-07T02:54:49;11.20;99.90
15596;DHT22;7898;48.658;9.068;2023-08-07T02:57:15;11.20;99.90
15596;DHT22;7898;48.658;9.068;2023-08-07T02:59:42;11.10;99.90
15596;DHT22;7898;48.658;9.068;2023-08-07T03:02:09;11.20;99.90
15596;DHT22;7898;48.658;9.068;2023-08-07T03:04:37;11.20;99.90
15596;DHT22;7898;48.658;9.068;2023-08-07T03:07:04;11.20;99.90
15596;DHT22;7898;48.658;9.068;2023-08-07T03:09:31;11.20;99.90
15596;DHT22;7898;48.658;9.068;2023-08-07T03:11:58;11.20;99.90
15596;DHT22;7898;48.658;9.068;2023-08-07T03:14:28;11.20;99.90
15596;DHT22;7898;48.658;9.068;2023-08-07T03:16:56;11.20;99.90
15596;DHT22;7898;48.658;9.068;2023-08-07T03:19:22;11.20;99.90
15596;DHT22;7898;48.658;9.068;2023-08-07T03:21:51;11.20;99.90
15596;DHT22;7898;48.658;9.068;2023-08-07T03:24:18;11.20;99.90
15596;DHT22;7898;48.658;9.068;2023-08-07T03:26:45;11.20;99.90
15596;DHT22;7898;48.658;9.068;2023-08-07T03:29:12;11.20;99.90
15596;DHT22;7898;48.658;9.068;2023-08-07T03:31:39;11.20;99.90
15596;DHT22;7898;48.658;9.068;2023-08-07T03:34:06;11.10;99.90
15596;DHT22;7898;48.658;9.068;2023-08-07T03:36:33;11.10;99.90
15596;DHT22;7898;48.658;9.068;2023-08-07T03:39:01;11.10;99.90
15596;DHT22;7898;48.658;9.068;2023-08-07T03:41:28;11.10;99.90
15596;DHT22;7898;48.658;9.068;2023-08-07T03:43:55;11.00;99.90
15596;DHT22;7898;48.658;9.068;2023-08-07T03:46:22;11.10;99.90
15596;DHT22;7898;48.658;9.068;2023-08-07T03:48:49;11.10;99.90
15596;DHT22;7898;48.658;9.068;2023-08-07T03:51:16;11.10;99.90
15596;DHT22;7898;48.658;9.068;2023-08-07T03:53:43;11.00;99.90
15596;DHT22;7898;48.658;9.068;2023-08-07T03:56:11;11.00;99.90
15596;DHT22;7898;48.658;9.068;2023-08-07T03:58:38;11.00;99.90
15596;DHT22;7898;48.658;9.068;2023-08-07T04:01:05;10.90;99.90
15596;DHT22;7898;48.658;9.068;2023-08-07T04:03:32;11.00;99.90
15596;DHT22;7898;48.658;9.068;2023-08-07T04:05:59;10.90;99.90
15596;DHT22;7898;48.658;9.068;2023-08-07T04:08:27;10.90;99.90
15596;DHT22;7898;48.658;9.068;2023-08-07T04:11:00;10.80;99.90
15596;DHT22;7898;48.658;9.068;2023-08-07T04:13:29;10.80;99.90
15596;DHT22;7898;48.658;9.068;2023-08-07T04:15:57;10.70;99.90
15596;DHT22;7898;48.658;9.068;2023-08-07T04:18:24;10.70;99.90
15596;DHT22;7898;48.658;9.068;2023-08-07T04:20:51;10.70;99.90
15596;DHT22;7898;48.658;9.068;2023-08-07T04:23:19;10.60;99.90
15596;DHT22;7898;48.658;9.068;2023-08-07T04:25:47;10.60;99.90
15596;DHT22;7898;48.658;9.068;2023-08-07T04:28:14;10.70;99.90
15596;DHT22;7898;48.658;9.068;2023-08-07T04:30:43;10.50;99.90
15596;DHT22;7898;48.658;9.068;2023-08-07T04:33:10;10.60;99.90
15596;DHT22;7898;48.658;9.068;2023-08-07T04:35:37;10.50;99.90
15596;DHT22;7898;48.658;9.068;2023-08-07T04:38:04;10.50;99.90
15596;DHT22;7898;48.658;9.068;2023-08-07T04:40:31;10.40;99.90
15596;DHT22;7898;48.658;9.068;2023-08-07T04:42:58;10.50;99.90
15596;DHT22;7898;48.658;9.068;2023-08-07T04:45:24;10.40;99.90
15596;DHT22;7898;48.658;9.068;2023-08-07T04:47:53;10.40;99.90
15596;DHT22;7898;48.658;9.068;2023-08-07T04:50:19;10.40;99.90
15596;DHT22;7898;48.658;9.068;2023-08-07T04:52:46;10.40;99.90
15596;DHT22;7898;48.658;9.068;2023-08-07T04:55:13;10.50;99.90
15596;DHT22;7898;48.658;9.068;2023-08-07T04:57:40;10.50;99.90
15596;DHT22;7898;48.658;9.068;2023-08-07T05:00:08;10.50;99.90
15596;DHT22;7898;48.658;9.068;2023-08-07T05:02:35;10.50;99.90
15596;DHT22;7898;48.658;9.068;2023-08-07T05:05:04;10.50;99.90
15596;DHT22;7898;48.658;9.068;2023-08-07T05:07:33;10.50;99.90
15596;DHT22;7898;48.658;9.068;2023-08-07T05:10:01;10.50;99.90
15596;DHT22;7898;48.658;9.068;2023-08-07T05:12:28;10.60;99.90
15596;DHT22;7898;48.658;9.068;2023-08-07T05:14:55;10.60;99.90
15596;DHT22;7898;48.658;9.068;2023-08-07T05:17:22;10.70;99.90
15596;DHT22;7898;48.658;9.068;2023-08-07T05:19:49;10.70;99.90
15596;DHT22;7898;48.658;9.068;2023-08-07T05:22:17;10.80;99.90
15596;DHT22;7898;48.658;9.068;2023-08-07T05:24:44;10.80;99.90
15596;DHT22;7898;48.658;9.068;2023-08-07T05:27:11;10.90;99.90
15596;DHT22;7898;48.658;9.068;2023-08-07T05:29:38;10.90;99.90
15596;DHT22;7898;48.658;9.068;2023-08-07T05:32:09;11.00;99.90
15596;DHT22;7898;48.658;9.068;2023-08-07T05:34:36;11.00;99.90
15596;DHT22;7898;48.658;9.068;2023-08-07T05:37:04;11.10;99.90
15596;DHT22;7898;48.658;9.068;2023-08-07T05:39:32;11.20;99.90
15596;DHT22;7898;48.658;9.068;2023-08-07T05:41:59;11.30;99.90
15596;DHT22;7898;48.658;9.068;2023-08-07T05:44:27;11.30;99.90
15596;DHT22;7898;48.658;9.068;2023-08-07T05:46:54;11.40;99.90
15596;DHT22;7898;48.658;9.068;2023-08-07T05:49:21;11.40;99.90
15596;DHT22;7898;48.658;9.068;2023-08-07T05:51:48;11.50;99.90
15596;DHT22;7898;48.658;9.068;2023-08-07T05:54:15;11.60;99.90
15596;DHT22;7898;48.658;9.068;2023-08-07T05:56:43;11.60;99.90
15596;DHT22;7898;48.658;9.068;2023-08-07T05:59:10;11.70;99.90
15596;DHT22;7898;48.658;9.068;2023-08-07T06:01:37;11.80;99.90
15596;DHT22;7898;48.658;9.068;2023-08-07T06:04:04;11.90;99.90
15596;DHT22;7898;48.658;9.068;2023-08-07T06:06:31;11.90;99.90
15596;DHT22;7898;48.658;9.068;2023-08-07T06:09:00;11.90;99.90
15596;DHT22;7898;48.658;9.068;2023-08-07T06:11:27;11.90;99.90
15596;DHT22;7898;48.658;9.068;2023-08-07T06:13:55;11.90;99.90
15596;DHT22;7898;48.658;9.068;2023-08-07T06:16:22;12.00;99.90
15596;DHT22;7898;48.658;9.068;2023-08-07T06:18:49;12.10;99.90
15596;DHT22;7898;48.658;9.068;2023-08-07T06:21:16;12.00;99.90
15596;DHT22;7898;48.658;9.068;2023-08-07T06:23:43;12.10;99.90
15596;DHT22;7898;48.658;9.068;2023-08-07T06:26:10;12.10;99.90
15596;DHT22;7898;48.658;9.068;2023-08-07T06:28:37;12.20;99.90
15596;DHT22;7898;48.658;9.068;2023-08-07T06:31:07;12.20;99.90
15596;DHT22;7898;48.658;9.068;2023-08-07T06:33:34;12.30;99.90
15596;DHT22;7898;48.658;9.068;2023-08-07T06:36:01;12.30;99.90
15596;DHT22;7898;48.658;9.068;2023-08-07T06:38:29;12.30;99.90
15596;DHT22;7898;48.658;9.068;2023-08-07T06:40:56;12.30;99.90
15596;DHT22;7898;48.658;9.068;2023-08-07T06:43:23;12.30;99.90
15596;DHT22;7898;48.658;9.068;2023-08-07T06:45:50;12.30;99.90
15596;DHT22;7898;48.658;9.068;2023-08-07T06:48:18;12.30;99.90
15596;DHT22;7898;48.658;9.068;2023-08-07T06:50:46;12.30;99.90
15596;DHT22;7898;48.658;9.068;2023-08-07T06:53:13;12.40;99.90
15596;DHT22;7898;48.658;9.068;2023-08-07T06:55:41;12.50;99.90
15596;DHT22;7898;48.658;9.068;2023-08-07T06:58:08;12.50;99.90
15596;DHT22;7898;48.658;9.068;2023-08-07T07:00:35;12.50;99.90
15596;DHT22;7898;48.658;9.068;2023-08-07T07:03:02;12.60;99.90
15596;DHT22;7898;48.658;9.068;2023-08-07T07:05:32;12.60;99.90
15596;DHT22;7898;48.658;9.068;2023-08-07T07:07:59;12.80;99.90
15596;DHT22;7898;48.658;9.068;2023-08-07T07:10:26;12.80;99.90
15596;DHT22;7898;48.658;9.068;2023-08-07T07:12:53;12.90;99.90
15596;DHT22;7898;48.658;9.068;2023-08-07T07:15:20;13.00;99.90
15596;DHT22;7898;48.658;9.068;2023-08-07T07:17:47;13.00;99.90
15596;DHT22;7898;48.658;9.068;2023-08-07T07:20:14;13.00;99.90
15596;DHT22;7898;48.658;9.068;2023-08-07T07:22:42;13.10;99.90
15596;DHT22;7898;48.658;9.068;2023-08-07T07:25:10;13.20;99.90
15596;DHT22;7898;48.658;9.068;2023-08-07T07:27:36;14.00;99.90
15596;DHT22;7898;48.658;9.068;2023-08-07T07:30:04;14.60;99.90
15596;DHT22;7898;48.658;9.068;2023-08-07T07:32:32;15.10;99.90
15596;DHT22;7898;48.658;9.068;2023-08-07T07:34:59;15.50;99.90
15596;DHT22;7898;48.658;9.068;2023-08-07T07:37:26;15.60;99.90
15596;DHT22;7898;48.658;9.068;2023-08-07T07:39:54;15.70;99.90
15596;DHT22;7898;48.658;9.068;2023-08-07T07:42:21;16.10;99.90
15596;DHT22;7898;48.658;9.068;2023-08-07T07:44:47;16.20;99.90
15596;DHT22;7898;48.658;9.068;2023-08-07T07:47:14;16.50;99.90
15596;DHT22;7898;48.658;9.068;2023-08-07T07:49:45;16.90;99.90
15596;DHT22;7898;48.658;9.068;2023-08-07T07:52:13;17.40;99.90
15596;DHT22;7898;48.658;9.068;2023-08-07T07:54:40;17.60;99.90
15596;DHT22;7898;48.658;9.068;2023-08-07T07:57:08;17.70;99.90
15596;DHT22;7898;48.658;9.068;2023-08-07T07:59:35;17.60;99.90
15596;DHT22;7898;48.658;9.068;2023-08-07T08:02:02;17.60;99.90
15596;DHT22;7898;48.658;9.068;2023-08-07T08:04:29;17.60;99.90
15596;DHT22;7898;48.658;9.068;2023-08-07T08:06:56;17.70;99.90
15596;DHT22;7898;48.658;9.068;2023-08-07T08:09:23;17.70;99.90
15596;DHT22;7898;48.658;9.068;2023-08-07T08:11:51;17.90;99.90
15596;DHT22;7898;48.658;9.068;2023-08-07T08:14:19;17.70;99.90
15596;DHT22;7898;48.658;9.068;2023-08-07T08:16:46;17.70;99.90
15596;DHT22;7898;48.658;9.068;2023-08-07T08:19:13;18.00;99.90
15596;DHT22;7898;48.658;9.068;2023-08-07T08:21:41;18.10;99.90
15596;DHT22;7898;48.658;9.068;2023-08-07T08:24:09;17.70;99.90
15596;DHT22;7898;48.658;9.068;2023-08-07T08:26:35;17.50;99.90
15596;DHT22;7898;48.658;9.068;2023-08-07T08:29:02;17.30;99.90
15596;DHT22;7898;48.658;9.068;2023-08-07T08:31:31;17.30;99.90
15596;DHT22;7898;48.658;9.068;2023-08-07T08:33:58;17.00;99.90
15596;DHT22;7898;48.658;9.068;2023-08-07T08:36:25;16.90;99.90
15596;DHT22;7898;48.658;9.068;2023-08-07T08:38:52;17.10;99.90
15596;DHT22;7898;48.658;9.068;2023-08-07T08:41:19;17.00;99.90
15596;DHT22;7898;48.658;9.068;2023-08-07T08:43:47;17.20;99.90
15596;DHT22;7898;48.658;9.068;2023-08-07T08:46:17;17.10;99.90
15596;DHT22;7898;48.658;9.068;2023-08-07T08:48:51;17.10;99.90
15596;DHT22;7898;48.658;9.068;2023-08-07T08:51:19;17.30;99.90
15596;DHT22;7898;48.658;9.068;2023-08-07T08:53:47;17.60;99.90
15596;DHT22;7898;48.658;9.068;2023-08-07T08:56:15;17.60;99.90
15596;DHT22;7898;48.658;9.068;2023-08-07T08:58:42;17.50;99.90
15596;DHT22;7898;48.658;9.068;2023-08-07T09:01:09;17.30;99.90
15596;DHT22;7898;48.658;9.068;2023-08-07T09:03:37;17.10;99.90
15596;DHT22;7898;48.658;9.068;2023-08-07T09:06:05;16.90;99.90
15596;DHT22;7898;48.658;9.068;2023-08-07T09:08:34;16.70;99.90
15596;DHT22;7898;48.658;9.068;2023-08-07T09:11:02;16.50;99.90
15596;DHT22;7898;48.658;9.068;2023-08-07T09:13:32;16.50;99.90
15596;DHT22;7898;48.658;9.068;2023-08-07T09:16:00;16.50;99.90
15596;DHT22;7898;48.658;9.068;2023-08-07T09:18:28;16.60;99.90
15596;DHT22;7898;48.658;9.068;2023-08-07T09:20:55;16.70;99.90
15596;DHT22;7898;48.658;9.068;2023-08-07T09:23:25;16.80;99.90
15596;DHT22;7898;48.658;9.068;2023-08-07T09:25:59;17.10;99.90
15596;DHT22;7898;48.658;9.068;2023-08-07T09:28:28;17.20;99.90
15596;DHT22;7898;48.658;9.068;2023-08-07T09:30:55;17.30;99.90
15596;DHT22;7898;48.658;9.068;2023-08-07T09:33:26;17.70;99.90
15596;DHT22;7898;48.658;9.068;2023-08-07T09:35:57;18.00;99.90
15596;DHT22;7898;48.658;9.068;2023-08-07T09:38:28;18.00;99.90
15596;DHT22;7898;48.658;9.068;2023-08-07T09:40:57;17.80;99.90
15596;DHT22;7898;48.658;9.068;2023-08-07T09:43:24;17.70;99.90
15596;DHT22;7898;48.658;9.068;2023-08-07T09:45:51;17.70;99.90
15596;DHT22;7898;48.658;9.068;2023-08-07T09:48:23;17.70;99.90
15596;DHT22;7898;48.658;9.068;2023-08-07T09:50:50;17.50;99.90
15596;DHT22;7898;48.658;9.068;2023-08-07T09:53:17;17.30;99.90
15596;DHT22;7898;48.658;9.068;2023-08-07T09:55:45;17.00;99.90
15596;DHT22;7898;48.658;9.068;2023-08-07T09:58:12;16.80;99.90
15596;DHT22;7898;48.658;9.068;2023-08-07T10:00:40;16.70;99.90
15596;DHT22;7898;48.658;9.068;2023-08-07T10:03:08;16.50;99.90
15596;DHT22;7898;48.658;9.068;2023-08-07T10:05:35;16.50;99.90
15596;DHT22;7898;48.658;9.068;2023-08-07T10:08:03;16.40;99.90
15596;DHT22;7898;48.658;9.068;2023-08-07T10:10:32;16.40;99.90
15596;DHT22;7898;48.658;9.068;2023-08-07T10:13:01;16.40;99.90
15596;DHT22;7898;48.658;9.068;2023-08-07T10:15:29;16.40;99.90
15596;DHT22;7898;48.658;9.068;2023-08-07T10:17:56;16.50;99.90
15596;DHT22;7898;48.658;9.068;2023-08-07T10:20:24;16.70;99.90
15596;DHT22;7898;48.658;9.068;2023-08-07T10:22:53;16.70;99.90
15596;DHT22;7898;48.658;9.068;2023-08-07T10:25:23;16.90;99.90
15596;DHT22;7898;48.658;9.068;2023-08-07T10:27:53;17.10;99.90
15596;DHT22;7898;48.658;9.068;2023-08-07T10:30:24;17.40;99.90
15596;DHT22;7898;48.658;9.068;2023-08-07T10:32:51;17.60;99.90
15596;DHT22;7898;48.658;9.068;2023-08-07T10:35:25;17.60;99.90
15596;DHT22;7898;48.658;9.068;2023-08-07T10:37:52;17.50;99.90
15596;DHT22;7898;48.658;9.068;2023-08-07T10:40:19;17.40;99.90
15596;DHT22;7898;48.658;9.068;2023-08-07T10:43:12;17.40;99.90
15596;DHT22;7898;48.658;9.068;2023-08-07T10:45:40;17.60;99.90
15596;DHT22;7898;48.658;9.068;2023-08-07T10:48:11;17.60;99.90
15596;DHT22;7898;48.658;9.068;2023-08-07T10:50:50;17.50;99.90
15596;DHT22;7898;48.658;9.068;2023-08-07T10:53:28;17.30;99.90
15596;DHT22;7898;48.658;9.068;2023-08-07T10:59:08;16.90;99.90
15596;DHT22;7898;48.658;9.068;2023-08-07T11:01:42;16.90;99.90
15596;DHT22;7898;48.658;9.068;2023-08-07T11:04:11;16.80;99.90
15596;DHT22;7898;48.658;9.068;2023-08-07T11:06:41;16.90;99.90
15596;DHT22;7898;48.658;9.068;2023-08-07T11:09:09;17.00;99.90
15596;DHT22;7898;48.658;9.068;2023-08-07T11:11:36;17.20;99.90
15596;DHT22;7898;48.658;9.068;2023-08-07T11:14:05;17.30;99.90
15596;DHT22;7898;48.658;9.068;2023-08-07T11:16:33;17.20;99.90
15596;DHT22;7898;48.658;9.068;2023-08-07T11:19:02;17.10;99.90
15596;DHT22;7898;48.658;9.068;2023-08-07T11:21:29;17.10;99.90
15596;DHT22;7898;48.658;9.068;2023-08-07T11:23:57;17.00;99.90
15596;DHT22;7898;48.658;9.068;2023-08-07T11:26:24;16.90;99.90
15596;DHT22;7898;48.658;9.068;2023-08-07T11:28:53;16.90;99.90
15596;DHT22;7898;48.658;9.068;2023-08-07T11:31:21;16.80;99.90
15596;DHT22;7898;48.658;9.068;2023-08-07T11:33:50;16.90;99.90
15596;DHT22;7898;48.658;9.068;2023-08-07T11:36:19;16.80;99.90
15596;DHT22;7898;48.658;9.068;2023-08-07T11:38:46;16.80;99.90
15596;DHT22;7898;48.658;9.068;2023-08-07T11:41:15;16.90;99.90
15596;DHT22;7898;48.658;9.068;2023-08-07T11:43:42;16.90;99.90
15596;DHT22;7898;48.658;9.068;2023-08-07T11:46:12;16.80;99.90
15596;DHT22;7898;48.658;9.068;2023-08-07T11:48:40;16.70;99.90
15596;DHT22;7898;48.658;9.068;2023-08-07T11:51:07;16.60;99.90
15596;DHT22;7898;48.658;9.068;2023-08-07T11:53:37;16.50;99.90
15596;DHT22;7898;48.658;9.068;2023-08-07T11:56:08;16.40;99.90
15596;DHT22;7898;48.658;9.068;2023-08-07T11:58:37;16.30;99.90
15596;DHT22;7898;48.658;9.068;2023-08-07T12:01:04;16.10;99.90
15596;DHT22;7898;48.658;9.068;2023-08-07T12:03:33;16.10;99.90
15596;DHT22;7898;48.658;9.068;2023-08-07T12:06:05;16.00;99.90
15596;DHT22;7898;48.658;9.068;2023-08-07T12:08:33;16.00;99.90
15596;DHT22;7898;48.658;9.068;2023-08-07T12:11:02;15.90;99.90
15596;DHT22;7898;48.658;9.068;2023-08-07T12:13:30;15.90;99.90
15596;DHT22;7898;48.658;9.068;2023-08-07T12:15:58;15.80;99.90
15596;DHT22;7898;48.658;9.068;2023-08-07T12:18:27;15.70;99.90
15596;DHT22;7898;48.658;9.068;2023-08-07T12:20:57;15.70;99.90
15596;DHT22;7898;48.658;9.068;2023-08-07T12:23:25;15.60;99.90
15596;DHT22;7898;48.658;9.068;2023-08-07T12:25:52;15.50;99.90
15596;DHT22;7898;48.658;9.068;2023-08-07T12:28:20;15.40;99.90
15596;DHT22;7898;48.658;9.068;2023-08-07T12:30:48;15.20;99.90
15596;DHT22;7898;48.658;9.068;2023-08-07T12:33:15;15.10;99.90
15596;DHT22;7898;48.658;9.068;2023-08-07T12:35:42;15.00;99.90
15596;DHT22;7898;48.658;9.068;2023-08-07T12:38:09;15.00;99.90
15596;DHT22;7898;48.658;9.068;2023-08-07T12:40:36;15.10;99.90
15596;DHT22;7898;48.658;9.068;2023-08-07T12:43:03;15.30;99.90
15596;DHT22;7898;48.658;9.068;2023-08-07T12:45:33;15.50;99.90
15596;DHT22;7898;48.658;9.068;2023-08-07T12:48:00;15.50;99.90
15596;DHT22;7898;48.658;9.068;2023-08-07T12:50:28;15.50;99.90
15596;DHT22;7898;48.658;9.068;2023-08-07T12:52:55;15.50;99.90
15596;DHT22;7898;48.658;9.068;2023-08-07T12:55:22;15.50;99.90
15596;DHT22;7898;48.658;9.068;2023-08-07T12:57:50;15.40;99.90
15596;DHT22;7898;48.658;9.068;2023-08-07T13:00:17;15.40;99.90
15596;DHT22;7898;48.658;9.068;2023-08-07T13:02:46;15.30;99.90
15596;DHT22;7898;48.658;9.068;2023-08-07T13:05:14;15.20;99.90
15596;DHT22;7898;48.658;9.068;2023-08-07T13:07:43;15.10;99.90
15596;DHT22;7898;48.658;9.068;2023-08-07T13:10:12;15.00;99.90
15596;DHT22;7898;48.658;9.068;2023-08-07T13:12:40;15.10;99.90
15596;DHT22;7898;48.658;9.068;2023-08-07T13:15:09;15.20;99.90
15596;DHT22;7898;48.658;9.068;2023-08-07T13:17:37;15.50;99.90
15596;DHT22;7898;48.658;9.068;2023-08-07T13:20:08;15.80;99.90
15596;DHT22;7898;48.658;9.068;2023-08-07T13:22:35;16.00;99.90
15596;DHT22;7898;48.658;9.068;2023-08-07T13:25:03;16.20;99.90
15596;DHT22;7898;48.658;9.068;2023-08-07T13:27:30;16.50;99.90
15596;DHT22;7898;48.658;9.068;2023-08-07T13:29:57;16.70;99.90
15596;DHT22;7898;48.658;9.068;2023-08-07T13:32:24;16.80;99.90
15596;DHT22;7898;48.658;9.068;2023-08-07T13:34:51;16.70;99.90
15596;DHT22;7898;48.658;9.068;2023-08-07T13:37:20;16.60;99.90
15596;DHT22;7898;48.658;9.068;2023-08-07T13:39:47;16.50;99.90
15596;DHT22;7898;48.658;9.068;2023-08-07T13:42:15;16.40;99.90
15596;DHT22;7898;48.658;9.068;2023-08-07T13:44:42;16.40;99.90
15596;DHT22;7898;48.658;9.068;2023-08-07T13:47:09;16.60;99.90
15596;DHT22;7898;48.658;9.068;2023-08-07T13:49:37;17.10;99.90
15596;DHT22;7898;48.658;9.068;2023-08-07T13:52:04;17.70;99.90
15596;DHT22;7898;48.658;9.068;2023-08-07T13:54:33;18.20;99.90
15596;DHT22;7898;48.658;9.068;2023-08-07T13:57:00;18.70;99.90
15596;DHT22;7898;48.658;9.068;2023-08-07T13:59:26;18.90;99.90
15596;DHT22;7898;48.658;9.068;2023-08-07T14:01:53;19.00;99.90
15596;DHT22;7898;48.658;9.068;2023-08-07T14:04:21;19.10;99.90
15596;DHT22;7898;48.658;9.068;2023-08-07T14:06:48;19.10;99.90
15596;DHT22;7898;48.658;9.068;2023-08-07T14:09:15;19.30;99.90
15596;DHT22;7898;48.658;9.068;2023-08-07T14:11:45;19.60;99.90
15596;DHT22;7898;48.658;9.068;2023-08-07T14:14:12;20.00;99.90
15596;DHT22;7898;48.658;9.068;2023-08-07T14:16:39;19.90;99.90
15596;DHT22;7898;48.658;9.068;2023-08-07T14:19:05;19.60;99.90
15596;DHT22;7898;48.658;9.068;2023-08-07T14:21:32;19.20;99.90
15596;DHT22;7898;48.658;9.068;2023-08-07T14:23:59;19.00;99.90
15596;DHT22;7898;48.658;9.068;2023-08-07T14:26:26;18.90;99.90
15596;DHT22;7898;48.658;9.068;2023-08-07T14:28:55;18.90;99.90
15596;DHT22;7898;48.658;9.068;2023-08-07T14:31:22;19.20;99.90
15596;DHT22;7898;48.658;9.068;2023-08-07T14:33:48;19.40;99.90
15596;DHT22;7898;48.658;9.068;2023-08-07T14:36:15;19.40;99.90
15596;DHT22;7898;48.658;9.068;2023-08-07T14:38:42;19.20;99.90
15596;DHT22;7898;48.658;9.068;2023-08-07T14:41:09;19.00;99.90
15596;DHT22;7898;48.658;9.068;2023-08-07T14:43:36;18.80;99.90
15596;DHT22;7898;48.658;9.068;2023-08-07T14:46:04;18.60;99.90
15596;DHT22;7898;48.658;9.068;2023-08-07T14:48:31;18.20;99.90
15596;DHT22;7898;48.658;9.068;2023-08-07T14:50:58;17.90;99.90
15596;DHT22;7898;48.658;9.068;2023-08-07T14:53:25;17.70;99.90
15596;DHT22;7898;48.658;9.068;2023-08-07T14:55:52;17.50;99.90
15596;DHT22;7898;48.658;9.068;2023-08-07T14:58:19;17.40;99.90
15596;DHT22;7898;48.658;9.068;2023-08-07T15:00:46;17.30;99.90
15596;DHT22;7898;48.658;9.068;2023-08-07T15:03:16;17.20;99.90
15596;DHT22;7898;48.658;9.068;2023-08-07T15:05:43;17.10;99.90
15596;DHT22;7898;48.658;9.068;2023-08-07T15:08:10;17.00;99.90
15596;DHT22;7898;48.658;9.068;2023-08-07T15:10:36;17.00;99.90
15596;DHT22;7898;48.658;9.068;2023-08-07T15:13:05;17.00;99.90
15596;DHT22;7898;48.658;9.068;2023-08-07T15:15:32;17.10;99.90
15596;DHT22;7898;48.658;9.068;2023-08-07T15:17:59;17.20;99.90
15596;DHT22;7898;48.658;9.068;2023-08-07T15:20:29;17.20;99.90
15596;DHT22;7898;48.658;9.068;2023-08-07T15:22:56;17.40;99.90
15596;DHT22;7898;48.658;9.068;2023-08-07T15:25:23;17.70;99.90
15596;DHT22;7898;48.658;9.068;2023-08-07T15:27:50;18.10;99.90
15596;DHT22;7898;48.658;9.068;2023-08-07T15:30:18;18.90;99.90
15596;DHT22;7898;48.658;9.068;2023-08-07T15:32:44;20.20;99.90
15596;DHT22;7898;48.658;9.068;2023-08-07T15:35:11;21.20;99.90
15596;DHT22;7898;48.658;9.068;2023-08-07T15:37:40;21.10;99.90
15596;DHT22;7898;48.658;9.068;2023-08-07T15:40:08;20.40;99.90
15596;DHT22;7898;48.658;9.068;2023-08-07T15:42:35;19.80;99.90
15596;DHT22;7898;48.658;9.068;2023-08-07T15:45:02;19.50;99.90
15596;DHT22;7898;48.658;9.068;2023-08-07T15:47:30;19.30;99.90
15596;DHT22;7898;48.658;9.068;2023-08-07T15:49:57;19.00;99.90
15596;DHT22;7898;48.658;9.068;2023-08-07T15:52:24;18.70;99.90